Time;durP1;ratioP1;P1;durP2;ratioP2;P2;SDS_P1;SDS_P2;PMS_P1;PMS_P2;Temp;Humidity;BMP_temperature;BMP_pressure;BME280_temperature;BME280_humidity;BME280_pressure;Samples;Min_cycle;Max_cycle;Signal;HPM_P1;HPM_P2
2023/08/22 00:00:27;;;;;;;5.03;2.80;;;19.70;1.00;;;;;;6253499;23;20592;-89
2023/08/22 00:02:52;;;;;;;5.10;3.23;;;18.20;1.00;;;;;;6252425;23;20159;-90
2023/08/22 00:05:18;;;;;;;4.00;2.63;;;18.00;1.00;;;;;;6252053;23;20222;-91
2023/08/22 00:07:44;;;;;;;5.37;3.10;;;18.40;1.00;;;;;;6253031;23;20578;-90
2023/08/22 00:10:10;;;;;;;4.07;3.10;;;18.10;1.00;;;;;;6253432;23;20155;-89
2023/08/22 00:12:35;;;;;;;4.30;2.70;;;18.20;1.00;;;;;;6256315;23;20213;-89
2023/08/22 00:15:04;;;;;;;7.23;2.87;;;18.30;1.00;;;;;;6255251;23;20187;-91
2023/08/22 00:17:31;;;;;;;4.47;3.20;;;19.60;1.00;;;;;;6254964;23;20191;-90
2023/08/22 00:19:56;;;;;;;5.87;3.10;;;17.90;1.00;;;;;;6255205;23;20159;-90
2023/08/22 00:22:22;;;;;;;4.47;3.37;;;18.10;1.00;;;;;;6255640;23;20159;-88
2023/08/22 00:24:48;;;;;;;5.53;3.47;;;18.00;1.00;;;;;;6256501;23;20529;-92
2023/08/22 00:27:13;;;;;;;5.43;3.23;;;17.30;1.00;;;;;;6255587;23;20659;-89
2023/08/22 00:29:39;;;;;;;3.40;2.93;;;18.70;1.00;;;;;;6255251;23;20159;-92
2023/08/22 00:32:04;;;;;;;4.53;3.03;;;18.00;1.00;;;;;;6255154;23;20159;-89
2023/08/22 00:34:30;;;;;;;6.97;3.23;;;17.90;1.00;;;;;;6253268;23;20182;-89
2023/08/22 00:36:56;;;;;;;7.83;3.83;;;17.90;1.00;;;;;;6251884;23;20462;-90
2023/08/22 00:39:24;;;;;;;7.63;2.97;;;17.70;1.00;;;;;;6251840;22;20198;-90
2023/08/22 00:41:49;;;;;;;5.67;3.00;;;18.00;1.00;;;;;;6250139;23;20187;-90
2023/08/22 00:44:15;;;;;;;4.47;2.90;;;17.80;1.00;;;;;;6250556;23;20180;-90
2023/08/22 00:46:41;;;;;;;4.07;3.13;;;17.80;1.00;;;;;;6249604;23;20256;-90
2023/08/22 00:49:08;;;;;;;6.63;3.20;;;17.80;1.00;;;;;;6259725;22;20168;-91
2023/08/22 00:51:35;;;;;;;5.53;3.07;;;18.50;1.00;;;;;;6251077;23;20167;-90
2023/08/22 00:54:01;;;;;;;5.00;3.50;;;17.70;1.00;;;;;;6252052;23;20163;-91
2023/08/22 00:56:27;;;;;;;5.93;3.40;;;17.90;1.00;;;;;;6254016;23;20231;-91
2023/08/22 00:58:53;;;;;;;4.70;3.10;;;18.20;1.00;;;;;;6254230;23;20614;-90
2023/08/22 01:01:19;;;;;;;7.37;3.63;;;17.60;1.00;;;;;;6254618;23;20156;-88
2023/08/22 01:03:44;;;;;;;5.53;3.43;;;17.60;1.00;;;;;;6254835;23;20550;-90
2023/08/22 01:06:41;;;;;;;4.23;3.37;;;18.30;1.00;;;;;;6255211;23;20202;-90
2023/08/22 01:09:18;;;;;;;6.23;3.30;;;17.50;1.00;;;;;;6255658;23;20152;-90
2023/08/22 01:11:47;;;;;;;5.20;2.93;;;17.40;1.00;;;;;;6256473;23;20144;-91
2023/08/22 01:14:17;;;;;;;4.47;3.37;;;16.50;1.00;;;;;;6254792;23;20243;-91
2023/08/22 01:16:43;;;;;;;6.20;3.10;;;17.80;1.00;;;;;;6255320;23;20225;-92
2023/08/22 01:19:13;;;;;;;4.23;3.07;;;17.40;1.00;;;;;;6254175;22;20152;-90
2023/08/22 01:21:51;;;;;;;6.03;3.50;;;17.30;1.00;;;;;;6252471;23;20164;-92
2023/08/22 01:24:17;;;;;;;7.67;3.50;;;17.20;1.00;;;;;;6252332;23;20191;-91
2023/08/22 01:26:44;;;;;;;5.43;3.40;;;17.50;1.00;;;;;;6252265;23;20213;-88
2023/08/22 01:29:14;;;;;;;7.07;3.43;;;17.50;1.00;;;;;;6251611;23;20229;-91
2023/08/22 01:31:45;;;;;;;5.70;3.30;;;17.90;1.00;;;;;;6252411;23;20183;-91
2023/08/22 01:34:19;;;;;;;5.80;3.33;;;17.50;1.00;;;;;;6251162;23;20242;-91
2023/08/22 01:36:46;;;;;;;5.97;3.30;;;17.10;1.00;;;;;;6252080;23;20159;-89
2023/08/22 01:39:14;;;;;;;4.50;3.10;;;18.50;1.00;;;;;;6251300;23;20191;-91
2023/08/22 01:41:40;;;;;;;5.53;3.77;;;17.80;1.00;;;;;;6250909;23;20156;-88
2023/08/22 01:44:05;;;;;;;4.87;3.17;;;17.00;1.00;;;;;;6250234;23;20186;-90
2023/08/22 01:46:31;;;;;;;5.77;3.37;;;17.00;1.00;;;;;;6254152;23;20225;-91
2023/08/22 01:48:57;;;;;;;6.87;4.23;;;17.00;1.00;;;;;;6266045;23;20600;-90
2023/08/22 01:51:22;;;;;;;6.67;3.53;;;18.10;1.00;;;;;;6255857;23;20581;-91
2023/08/22 01:53:48;;;;;;;8.13;3.70;;;16.90;1.00;;;;;;6255601;23;20209;-90
2023/08/22 01:56:13;;;;;;;7.63;3.70;;;16.90;1.00;;;;;;6256857;22;20176;-89
2023/08/22 01:58:39;;;;;;;6.20;3.60;;;16.80;1.00;;;;;;6255965;23;20159;-88
2023/08/22 02:01:12;;;;;;;7.87;3.83;;;17.50;1.00;;;;;;6255370;23;20160;-89
2023/08/22 02:03:38;;;;;;;8.20;3.63;;;17.20;1.00;;;;;;6254722;23;20175;-89
2023/08/22 02:06:04;;;;;;;8.37;3.93;;;16.70;1.00;;;;;;6253915;23;20203;-92
2023/08/22 02:08:30;;;;;;;6.03;3.50;;;16.70;1.00;;;;;;6254939;23;20593;-89
2023/08/22 02:10:56;;;;;;;7.50;3.73;;;16.70;1.00;;;;;;6254787;23;20163;-90
2023/08/22 02:13:21;;;;;;;6.20;3.93;;;16.70;1.00;;;;;;6254515;23;20219;-89
2023/08/22 02:15:47;;;;;;;5.37;3.17;;;16.70;1.00;;;;;;6255042;23;20187;-92
2023/08/22 02:18:12;;;;;;;5.33;3.87;;;16.50;1.00;;;;;;6255415;23;20164;-91
2023/08/22 02:20:38;;;;;;;4.83;3.23;;;16.60;1.00;;;;;;6255385;23;20166;-90
2023/08/22 02:23:04;;;;;;;10.33;4.73;;;16.70;1.00;;;;;;6255537;23;20163;-91
2023/08/22 02:25:32;;;;;;;5.40;3.57;;;16.50;1.00;;;;;;6255238;23;20309;-89
2023/08/22 02:27:58;;;;;;;6.73;3.53;;;16.60;1.00;;;;;;6254647;23;20238;-89
2023/08/22 02:30:24;;;;;;;5.40;3.60;;;16.40;1.20;;;;;;6255767;23;20162;-86
2023/08/22 02:32:50;;;;;;;6.10;3.60;;;16.40;1.60;;;;;;6254933;23;20156;-91
2023/08/22 02:35:16;;;;;;;5.67;3.77;;;16.50;1.80;;;;;;6256254;23;20182;-90
2023/08/22 02:37:41;;;;;;;4.93;3.47;;;16.40;2.40;;;;;;6255359;23;20159;-91
2023/08/22 02:40:09;;;;;;;7.53;3.73;;;16.50;3.50;;;;;;6250762;23;20618;-91
2023/08/22 02:42:35;;;;;;;7.00;4.20;;;16.30;4.60;;;;;;6250537;23;20163;-92
2023/08/22 02:45:01;;;;;;;6.83;3.77;;;16.50;5.60;;;;;;6263389;22;20317;-92
2023/08/22 02:47:28;;;;;;;5.60;3.40;;;16.70;6.50;;;;;;6258199;23;20187;-92
2023/08/22 02:49:54;;;;;;;4.30;3.70;;;16.20;5.90;;;;;;6253556;23;20163;-91
2023/08/22 02:52:20;;;;;;;8.87;3.90;;;16.20;6.10;;;;;;6254114;23;20155;-91
2023/08/22 02:54:46;;;;;;;5.30;3.43;;;16.20;6.40;;;;;;6253520;23;20226;-92
2023/08/22 02:57:11;;;;;;;8.13;3.33;;;16.20;6.80;;;;;;6254142;23;20163;-91
2023/08/22 02:59:37;;;;;;;7.80;3.33;;;16.10;6.50;;;;;;6254076;23;20160;-90
2023/08/22 03:02:03;;;;;;;4.60;3.70;;;16.10;6.60;;;;;;6255256;23;20188;-89
2023/08/22 03:04:30;;;;;;;8.03;3.80;;;16.30;7.10;;;;;;6253997;23;20198;-90
2023/08/22 03:06:55;;;;;;;8.33;4.30;;;16.20;7.50;;;;;;6254260;23;20184;-90
2023/08/22 03:09:21;;;;;;;5.93;4.30;;;16.00;7.80;;;;;;6254487;23;20235;-91
2023/08/22 03:11:47;;;;;;;5.43;4.30;;;16.30;10.30;;;;;;6253797;23;20238;-91
2023/08/22 03:14:13;;;;;;;8.17;4.67;;;17.40;12.50;;;;;;6229269;23;20515;-91
2023/08/22 03:16:38;;;;;;;4.63;3.97;;;16.50;12.90;;;;;;6254235;23;20156;-88
2023/08/22 03:19:04;;;;;;;6.17;4.23;;;16.10;12.90;;;;;;6253730;23;20162;-91
2023/08/22 03:21:30;;;;;;;6.03;4.30;;;16.00;12.80;;;;;;6253985;23;20167;-92
2023/08/22 03:23:55;;;;;;;7.00;4.10;;;16.00;12.60;;;;;;6252815;23;20174;-89
2023/08/22 03:26:21;;;;;;;6.20;4.30;;;16.10;12.50;;;;;;6253499;23;20193;-89
2023/08/22 03:28:46;;;;;;;7.43;4.30;;;16.00;12.50;;;;;;6253072;23;20160;-89
2023/08/22 03:31:12;;;;;;;6.67;4.03;;;15.90;12.40;;;;;;6251364;23;20167;-89
2023/08/22 03:33:37;;;;;;;6.33;4.57;;;16.80;12.50;;;;;;6250769;23;20160;-90
2023/08/22 03:36:03;;;;;;;5.27;4.50;;;16.90;13.30;;;;;;6250608;23;20186;-90
2023/08/22 03:38:29;;;;;;;9.77;5.33;;;15.90;15.40;;;;;;6250543;23;20155;-92
2023/08/22 03:40:56;;;;;;;6.37;5.20;;;15.90;17.20;;;;;;6252089;23;20159;-91
2023/08/22 03:43:22;;;;;;;6.57;5.07;;;15.90;18.80;;;;;;6251513;23;20166;-86
2023/08/22 03:45:48;;;;;;;8.03;5.30;;;15.90;20.30;;;;;;6250193;23;20191;-90
2023/08/22 03:48:14;;;;;;;12.20;5.30;;;15.90;22.40;;;;;;6250977;23;20170;-87
2023/08/22 03:50:40;;;;;;;6.70;5.20;;;16.00;23.00;;;;;;6250378;23;20194;-89
2023/08/22 03:53:07;;;;;;;7.50;4.70;;;15.90;24.10;;;;;;6250390;23;20152;-89
2023/08/22 03:55:33;;;;;;;5.57;4.93;;;15.90;24.60;;;;;;6250919;23;20176;-88
2023/08/22 03:57:58;;;;;;;5.00;4.50;;;16.10;25.00;;;;;;6250945;23;20238;-90
2023/08/22 04:00:25;;;;;;;8.50;5.30;;;15.80;23.80;;;;;;6250305;23;20234;-90
2023/08/22 04:02:55;;;;;;;5.60;4.53;;;15.90;22.90;;;;;;6251533;23;20160;-91
2023/08/22 04:05:21;;;;;;;6.30;4.53;;;16.00;22.80;;;;;;6249898;23;20202;-90
2023/08/22 04:07:47;;;;;;;5.70;4.10;;;16.20;22.70;;;;;;6251163;23;20160;-90
2023/08/22 04:10:13;;;;;;;6.67;5.00;;;15.90;22.20;;;;;;6251563;23;20182;-92
2023/08/22 04:12:38;;;;;;;7.47;5.10;;;15.70;21.20;;;;;;6251273;23;20533;-90
2023/08/22 04:15:04;;;;;;;7.73;5.43;;;15.80;20.90;;;;;;6251653;23;20175;-91
2023/08/22 04:17:30;;;;;;;11.47;5.50;;;15.70;21.10;;;;;;6251466;23;20167;-88
2023/08/22 04:19:55;;;;;;;6.03;4.73;;;15.70;21.70;;;;;;6250655;23;20163;-91
2023/08/22 04:22:21;;;;;;;8.40;4.77;;;15.70;22.20;;;;;;6250267;23;20167;-89
2023/08/22 04:24:46;;;;;;;7.27;4.87;;;15.70;21.60;;;;;;6251546;23;20179;-89
2023/08/22 04:27:12;;;;;;;8.70;4.80;;;15.90;20.90;;;;;;6250568;23;20285;-92
2023/08/22 04:29:37;;;;;;;6.80;5.37;;;15.60;20.90;;;;;;6250519;23;20159;-86
2023/08/22 04:32:03;;;;;;;7.07;5.30;;;15.80;21.50;;;;;;6250369;23;20156;-90
2023/08/22 04:34:29;;;;;;;10.50;5.70;;;15.60;22.70;;;;;;6252765;23;20179;-91
2023/08/22 04:36:55;;;;;;;8.27;5.37;;;15.60;24.10;;;;;;6261152;23;20190;-91
2023/08/22 04:39:21;;;;;;;9.80;6.10;;;16.20;25.70;;;;;;6264817;22;20487;-91
2023/08/22 04:41:46;;;;;;;9.63;6.00;;;16.20;26.50;;;;;;6254675;23;20155;-91
2023/08/22 04:44:12;;;;;;;14.60;6.40;;;15.80;27.60;;;;;;6255308;23;20483;-91
2023/08/22 04:46:37;;;;;;;9.77;6.00;;;15.60;28.10;;;;;;6254811;23;20184;-92
2023/08/22 04:49:03;;;;;;;10.57;6.60;;;15.60;28.90;;;;;;6252037;23;20214;-89
2023/08/22 04:51:29;;;;;;;13.67;6.40;;;15.60;29.50;;;;;;6249992;23;20155;-85
2023/08/22 04:53:54;;;;;;;8.37;5.63;;;15.50;29.90;;;;;;6250226;23;20209;-90
2023/08/22 04:56:21;;;;;;;7.77;5.50;;;15.50;29.20;;;;;;6250434;23;20166;-89
2023/08/22 04:58:46;;;;;;;14.43;6.30;;;15.60;29.20;;;;;;6251884;22;20155;-90
2023/08/22 05:01:12;;;;;;;10.17;6.37;;;15.60;29.10;;;;;;6249527;23;20187;-84
2023/08/22 05:03:37;;;;;;;14.57;6.73;;;15.90;30.20;;;;;;6249731;23;20258;-90
2023/08/22 05:06:03;;;;;;;15.97;6.97;;;15.60;31.50;;;;;;6249713;23;20746;-88
2023/08/22 05:08:29;;;;;;;18.60;7.20;;;15.60;32.60;;;;;;6252068;23;20152;-87
2023/08/22 05:10:59;;;;;;;11.93;6.87;;;15.80;37.40;;;;;;6249487;23;20163;-87
2023/08/22 05:13:25;;;;;;;21.50;6.90;;;15.70;40.90;;;;;;6249969;22;20148;-87
2023/08/22 05:15:51;;;;;;;18.20;6.97;;;15.80;42.70;;;;;;6252713;23;20514;-87
2023/08/22 05:18:16;;;;;;;10.10;7.07;;;17.20;44.80;;;;;;6251913;23;20159;-85
2023/08/22 05:20:42;;;;;;;8.47;7.13;;;15.90;44.70;;;;;;6248801;23;20631;-88
2023/08/22 05:23:07;;;;;;;13.03;7.90;;;15.90;44.00;;;;;;6248587;23;20647;-91
2023/08/22 05:25:33;;;;;;;11.23;7.97;;;16.20;43.80;;;;;;6248997;23;20646;-88
2023/08/22 05:27:59;;;;;;;9.97;7.73;;;16.00;41.40;;;;;;6250002;23;20214;-89
2023/08/22 05:30:24;;;;;;;11.83;7.53;;;15.90;41.00;;;;;;6254104;23;20197;-90
2023/08/22 05:32:51;;;;;;;11.97;8.13;;;16.30;42.00;;;;;;6227709;23;20159;-89
2023/08/22 05:35:17;;;;;;;11.77;7.67;;;16.10;42.90;;;;;;6249998;23;20176;-86
2023/08/22 05:37:43;;;;;;;10.87;8.10;;;16.10;44.80;;;;;;6249101;23;20210;-88
2023/08/22 05:40:09;;;;;;;9.23;8.10;;;16.50;46.20;;;;;;6248187;23;20243;-88
2023/08/22 05:42:36;;;;;;;10.53;7.83;;;16.20;44.20;;;;;;6247968;23;20600;-86
2023/08/22 05:45:03;;;;;;;15.13;8.63;;;16.30;42.40;;;;;;6249989;23;20195;-87
2023/08/22 05:47:29;;;;;;;13.47;9.17;;;16.20;44.00;;;;;;6248656;23;20183;-88
2023/08/22 05:49:54;;;;;;;11.23;8.63;;;18.40;45.10;;;;;;6250563;22;20148;-85
2023/08/22 05:52:20;;;;;;;8.03;7.23;;;16.20;40.80;;;;;;6248263;23;20331;-86
2023/08/22 05:54:45;;;;;;;13.23;8.60;;;17.10;40.40;;;;;;6247610;23;20196;-85
2023/08/22 05:57:11;;;;;;;12.90;9.17;;;16.20;41.90;;;;;;6248050;23;20190;-90
2023/08/22 05:59:37;;;;;;;15.30;9.17;;;16.30;45.10;;;;;;6249789;23;20161;-90
2023/08/22 06:02:02;;;;;;;9.90;8.90;;;16.60;47.90;;;;;;6249464;23;20222;-87
2023/08/22 06:04:28;;;;;;;12.87;8.83;;;16.40;49.60;;;;;;6248846;23;20198;-89
2023/08/22 06:06:56;;;;;;;9.27;8.37;;;16.60;52.60;;;;;;6251024;22;20183;-90
2023/08/22 06:09:22;;;;;;;12.40;8.90;;;17.20;58.20;;;;;;6249732;23;20156;-92
2023/08/22 06:11:48;;;;;;;11.20;8.87;;;17.20;65.10;;;;;;6251985;22;20156;-91
2023/08/22 06:14:14;;;;;;;13.93;9.33;;;16.90;74.10;;;;;;6249302;23;20225;-91
2023/08/22 06:16:40;;;;;;;20.07;10.30;;;16.80;80.40;;;;;;6249338;23;20178;-90
2023/08/22 06:19:05;;;;;;;19.60;10.63;;;17.00;83.30;;;;;;6250509;22;20168;-91
2023/08/22 06:21:31;;;;;;;12.17;10.07;;;17.00;80.10;;;;;;6253337;23;20167;-87
2023/08/22 06:23:57;;;;;;;12.30;10.03;;;17.10;76.40;;;;;;6250887;23;20175;-84
2023/08/22 06:26:23;;;;;;;14.73;11.03;;;17.10;70.40;;;;;;6250367;22;20176;-82
2023/08/22 06:28:50;;;;;;;17.37;12.00;;;17.20;66.30;;;;;;6248699;23;20622;-86
2023/08/22 06:31:15;;;;;;;13.07;11.67;;;17.10;71.40;;;;;;6249863;22;20148;-85
2023/08/22 06:33:41;;;;;;;16.97;11.40;;;17.40;85.10;;;;;;6250433;23;20171;-87
2023/08/22 06:36:07;;;;;;;15.20;11.73;;;17.40;89.50;;;;;;6253830;23;20175;-89
2023/08/22 06:38:33;;;;;;;18.00;11.30;;;17.70;89.10;;;;;;6254321;23;20170;-88
2023/08/22 06:41:04;;;;;;;14.27;11.40;;;18.20;84.20;;;;;;6252913;23;20159;-88
2023/08/22 06:43:30;;;;;;;15.43;11.77;;;17.60;78.00;;;;;;6228665;23;20175;-88
2023/08/22 06:45:58;;;;;;;16.77;11.50;;;17.70;77.60;;;;;;6252722;23;20183;-88
2023/08/22 06:48:24;;;;;;;13.87;11.37;;;17.80;79.90;;;;;;6253659;23;20479;-90
2023/08/22 06:50:49;;;;;;;16.30;12.57;;;18.00;91.30;;;;;;6254231;23;20239;-88
2023/08/22 06:53:15;;;;;;;18.57;12.17;;;18.60;95.80;;;;;;6255188;22;20155;-88
2023/08/22 06:55:42;;;;;;;20.40;13.20;;;19.10;92.40;;;;;;6254251;23;20180;-88
2023/08/22 06:58:09;;;;;;;16.83;12.70;;;19.90;89.60;;;;;;6253774;23;20156;-89
2023/08/22 07:00:34;;;;;;;21.60;13.97;;;18.40;71.80;;;;;;6254890;22;20148;-88
2023/08/22 07:03:00;;;;;;;17.43;14.37;;;18.50;73.80;;;;;;6253373;23;20592;-89
2023/08/22 07:05:25;;;;;;;19.27;14.63;;;18.70;95.00;;;;;;6252665;23;20191;-88
2023/08/22 07:07:51;;;;;;;24.87;17.97;;;19.00;99.90;;;;;;6253665;23;20549;-88
2023/08/22 07:10:16;;;;;;;24.73;19.57;;;19.60;97.30;;;;;;6253434;23;20162;-92
2023/08/22 07:12:42;;;;;;;26.07;19.77;;;19.60;91.40;;;;;;6254265;23;20159;-90
2023/08/22 07:15:08;;;;;;;27.90;18.70;;;20.50;53.80;;;;;;6253332;23;20176;-90
2023/08/22 07:17:35;;;;;;;26.67;20.13;;;20.00;35.00;;;;;;6255374;22;20170;-90
2023/08/22 07:20:01;;;;;;;23.70;17.93;;;20.00;20.50;;;;;;6254743;23;20182;-88
2023/08/22 07:22:27;;;;;;;27.57;17.60;;;20.00;12.40;;;;;;6253338;23;20163;-91
2023/08/22 07:24:53;;;;;;;27.20;17.43;;;20.20;7.30;;;;;;6255314;22;20182;-88
2023/08/22 07:27:18;;;;;;;24.80;17.37;;;20.10;3.80;;;;;;6253157;23;20184;-88
2023/08/22 07:29:44;;;;;;;27.27;19.90;;;20.10;2.80;;;;;;6253928;23;20155;-87
2023/08/22 07:32:10;;;;;;;32.13;20.87;;;20.30;2.80;;;;;;6254475;23;20160;-88
2023/08/22 07:34:35;;;;;;;24.77;18.70;;;20.50;1.00;;;;;;6255336;23;20168;-88
2023/08/22 07:37:01;;;;;;;23.63;17.40;;;20.50;1.00;;;;;;6253832;23;20171;-88
2023/08/22 07:39:29;;;;;;;23.80;16.53;;;20.60;1.00;;;;;;6254041;23;20159;-90
2023/08/22 07:41:55;;;;;;;22.43;14.60;;;20.70;1.00;;;;;;6254612;23;20160;-88
2023/08/22 07:44:21;;;;;;;20.20;13.87;;;21.00;1.00;;;;;;6226656;23;20648;-91
2023/08/22 07:46:46;;;;;;;22.60;13.83;;;21.10;1.00;;;;;;6250339;22;20517;-90
2023/08/22 07:49:12;;;;;;;19.27;12.97;;;21.10;1.00;;;;;;6255730;23;20160;-87
2023/08/22 07:51:38;;;;;;;18.00;13.00;;;21.30;1.00;;;;;;6228289;23;20660;-88
2023/08/22 07:54:04;;;;;;;16.20;11.60;;;21.50;1.00;;;;;;6253040;23;20217;-89
2023/08/22 07:56:30;;;;;;;17.90;11.20;;;21.60;1.00;;;;;;6253554;23;20159;-91
2023/08/22 07:58:55;;;;;;;13.37;9.93;;;21.80;1.00;;;;;;6253668;23;20608;-87
2023/08/22 08:01:21;;;;;;;15.00;10.43;;;21.90;1.00;;;;;;6253258;23;20163;-90
2023/08/22 08:03:46;;;;;;;12.23;9.57;;;21.90;1.00;;;;;;6253385;23;20175;-88
2023/08/22 08:06:12;;;;;;;16.17;10.43;;;21.90;1.00;;;;;;6254941;22;20222;-89
2023/08/22 08:08:37;;;;;;;19.70;9.87;;;21.90;1.00;;;;;;6253812;23;20152;-88
2023/08/22 08:11:03;;;;;;;13.87;9.40;;;21.90;1.00;;;;;;6253394;23;20233;-89
2023/08/22 08:13:28;;;;;;;11.70;9.33;;;22.00;1.00;;;;;;6253258;23;20154;-88
2023/08/22 08:15:54;;;;;;;15.17;9.23;;;22.00;1.00;;;;;;6252829;23;20202;-88
2023/08/22 08:18:20;;;;;;;11.47;8.63;;;22.10;1.00;;;;;;6254348;23;20185;-90
2023/08/22 08:20:46;;;;;;;14.27;8.30;;;22.40;1.00;;;;;;6254667;23;20686;-90
2023/08/22 08:23:12;;;;;;;13.50;8.47;;;22.60;1.00;;;;;;6255106;23;20163;-89
2023/08/22 08:25:38;;;;;;;10.57;7.60;;;22.80;1.00;;;;;;6270213;22;20198;-91
2023/08/22 08:28:06;;;;;;;10.70;8.30;;;22.90;1.00;;;;;;6272263;23;20140;-90
2023/08/22 08:30:32;;;;;;;11.73;7.67;;;23.10;1.00;;;;;;6268994;22;20152;-89
2023/08/22 08:32:58;;;;;;;11.53;8.10;;;23.30;1.00;;;;;;6249515;23;20163;-89
2023/08/22 08:35:24;;;;;;;10.53;7.40;;;23.40;99.90;;;;;;6247696;23;20267;-90
2023/08/22 08:37:52;;;;;;;15.00;7.40;;;23.60;1.00;;;;;;6251315;23;20160;-91
2023/08/22 08:40:18;;;;;;;10.83;6.50;;;23.70;1.00;;;;;;6250256;23;20163;-91
2023/08/22 08:42:45;;;;;;;8.97;7.30;;;23.90;99.90;;;;;;6248622;23;20159;-91
2023/08/22 08:45:12;;;;;;;14.47;6.70;;;24.20;1.00;;;;;;6250474;22;20499;-88
2023/08/22 08:47:38;;;;;;;10.97;5.83;;;24.40;1.00;;;;;;6249609;22;20183;-91
2023/08/22 08:50:06;;;;;;;10.37;5.23;;;24.50;1.00;;;;;;6255681;23;20245;-90
2023/08/22 08:52:33;;;;;;;7.23;4.40;;;24.50;1.00;;;;;;6253410;22;20205;-89
2023/08/22 08:54:59;;;;;;;8.77;5.10;;;24.50;1.00;;;;;;6252774;23;20175;-87
2023/08/22 08:57:26;;;;;;;6.53;3.83;;;24.50;14.00;;;;;;6253962;23;20206;-89
2023/08/22 08:59:52;;;;;;;9.63;4.77;;;24.60;1.00;;;;;;6253706;22;20156;-90
2023/08/22 09:02:19;;;;;;;8.37;4.50;;;24.80;1.00;;;;;;6253942;22;20167;-89
2023/08/22 09:04:45;;;;;;;9.83;4.70;;;24.80;1.00;;;;;;6252832;23;20191;-90
2023/08/22 09:07:11;;;;;;;7.93;4.50;;;24.80;1.00;;;;;;6252548;23;20183;-88
2023/08/22 09:09:36;;;;;;;7.70;4.40;;;24.90;1.00;;;;;;6227786;23;20187;-89
2023/08/22 09:12:15;;;;;;;11.63;4.87;;;24.90;1.00;;;;;;6251968;23;20156;-88
2023/08/22 09:14:44;;;;;;;11.33;5.80;;;24.90;1.00;;;;;;6252759;23;20178;-90
2023/08/22 09:17:14;;;;;;;9.07;4.37;;;25.00;1.00;;;;;;6252548;23;20159;-90
2023/08/22 09:19:40;;;;;;;7.37;4.33;;;24.90;1.00;;;;;;6252814;23;20156;-86
2023/08/22 09:22:06;;;;;;;7.87;4.20;;;24.80;99.90;;;;;;6253852;22;20186;-89
2023/08/22 09:24:34;;;;;;;7.47;4.30;;;24.80;1.00;;;;;;6253002;23;20226;-89
2023/08/22 09:27:03;;;;;;;14.70;5.23;;;24.90;99.90;;;;;;6253050;23;20182;-90
2023/08/22 09:29:30;;;;;;;12.60;3.90;;;24.90;1.00;;;;;;6254353;22;20148;-88
2023/08/22 09:32:03;;;;;;;12.43;3.60;;;25.10;1.00;;;;;;6252938;23;20155;-88
2023/08/22 09:34:30;;;;;;;12.93;4.50;;;25.20;99.90;;;;;;6254121;23;20180;-89
2023/08/22 09:36:55;;;;;;;9.80;4.33;;;25.30;1.00;;;;;;6256336;23;20166;-93
2023/08/22 09:39:23;;;;;;;9.27;4.87;;;25.40;99.90;;;;;;6255418;23;20163;-88
2023/08/22 09:41:56;;;;;;;11.90;5.03;;;25.50;99.90;;;;;;6255836;23;20213;-92
2023/08/22 09:44:25;;;;;;;9.50;4.83;;;25.60;99.90;;;;;;6254048;22;20171;-90
2023/08/22 09:46:55;;;;;;;8.27;4.60;;;25.80;99.90;;;;;;6251253;23;20180;-92
2023/08/22 09:49:22;;;;;;;8.03;4.37;;;26.00;99.90;;;;;;6254973;22;20144;-89
2023/08/22 09:51:50;;;;;;;9.80;4.67;;;26.10;99.90;;;;;;6256767;22;20544;-90
2023/08/22 09:54:17;;;;;;;9.43;4.30;;;26.30;99.90;;;;;;6254891;23;20233;-90
2023/08/22 09:56:43;;;;;;;10.77;4.30;;;26.40;99.90;;;;;;6255209;23;20164;-91
2023/08/22 09:59:15;;;;;;;6.90;4.20;;;26.50;99.90;;;;;;6257411;22;20273;-90
2023/08/22 10:01:41;;;;;;;6.70;4.47;;;26.60;99.90;;;;;;6255897;23;20155;-90
2023/08/22 10:04:07;;;;;;;8.27;4.40;;;26.70;99.90;;;;;;6255456;23;20259;-90
2023/08/22 10:06:35;;;;;;;9.83;4.53;;;26.80;99.90;;;;;;6256383;23;20310;-89
2023/08/22 10:09:10;;;;;;;7.97;4.43;;;26.90;99.90;;;;;;6252113;23;20159;-90
2023/08/22 10:12:01;;;;;;;10.67;4.00;;;27.10;67.00;;;;;;6248295;23;20223;-89
2023/08/22 10:14:43;;;;;;;10.87;3.90;;;27.20;99.90;;;;;;6253431;23;20277;-88
2023/08/22 10:17:15;;;;;;;9.43;4.83;;;27.30;99.90;;;;;;6253773;23;20159;-89
2023/08/22 10:19:42;;;;;;;9.80;4.67;;;27.40;99.90;;;;;;6253173;23;20199;-89
2023/08/22 10:22:13;;;;;;;9.63;4.87;;;27.40;99.90;;;;;;6255600;22;20230;-87
2023/08/22 10:24:39;;;;;;;6.77;4.80;;;27.40;99.90;;;;;;6253829;23;20187;-91
2023/08/22 10:27:07;;;;;;;8.90;5.20;;;27.50;99.90;;;;;;6254300;23;20275;-91
2023/08/22 10:29:47;;;;;;;9.13;4.70;;;27.50;99.90;;;;;;6254069;23;20187;-90
2023/08/22 10:32:20;;;;;;;8.67;5.70;;;27.50;99.90;;;;;;6254000;23;20209;-90
2023/08/22 10:34:45;;;;;;;8.40;5.40;;;27.60;39.10;;;;;;6255967;22;20181;-92
2023/08/22 10:37:15;;;;;;;9.35;5.57;;;27.50;30.50;;;;;;6253984;23;20168;-90
2023/08/22 10:39:44;;;;;;;10.67;6.37;;;27.50;99.90;;;;;;6253611;23;20164;-90
2023/08/22 10:42:13;;;;;;;12.43;5.35;;;27.50;89.50;;;;;;6253812;23;20223;-90
2023/08/22 10:44:38;;;;;;;9.52;5.88;;;27.40;99.90;;;;;;6252372;23;20171;-89
2023/08/22 10:47:17;;;;;;;13.80;5.90;;;27.40;99.90;;;;;;6251963;23;20206;-89
2023/08/22 10:49:47;;;;;;;9.97;5.67;;;27.50;99.90;;;;;;6253210;23;20158;-85
2023/08/22 10:52:13;;;;;;;10.13;5.47;;;27.60;86.70;;;;;;6252758;23;20155;-89
2023/08/22 10:54:57;;;;;;;9.57;6.15;;;27.70;99.90;;;;;;6264176;22;20206;-91
2023/08/22 10:57:24;;;;;;;12.27;6.25;;;27.80;99.90;;;;;;6254979;23;20482;-91
2023/08/22 10:59:59;;;;;;;11.05;7.00;;;27.90;93.90;;;;;;6254942;23;20163;-90
2023/08/22 11:02:29;;;;;;;8.95;6.85;;;28.00;39.80;;;;;;6255663;23;20154;-90
2023/08/22 11:05:00;;;;;;;9.70;6.65;;;27.80;1.00;;;;;;6254799;23;20191;-89
2023/08/22 11:07:26;;;;;;;15.25;5.95;;;27.60;1.00;;;;;;6254135;23;20187;-91
2023/08/22 11:09:54;;;;;;;13.65;6.50;;;27.60;1.00;;;;;;6255791;23;20155;-90
2023/08/22 11:12:24;;;;;;;11.95;6.13;;;27.60;10.40;;;;;;6254764;23;20171;-88
2023/08/22 11:14:51;;;;;;;9.82;5.65;;;27.70;5.50;;;;;;6254189;23;20210;-89
2023/08/22 11:17:19;;;;;;;10.60;6.07;;;27.80;1.00;;;;;;6254228;23;20198;-90
2023/08/22 11:19:46;;;;;;;11.23;5.95;;;27.80;1.00;;;;;;6252433;23;20166;-87
2023/08/22 11:22:12;;;;;;;9.80;4.95;;;27.70;1.00;;;;;;6252791;23;20166;-88
2023/08/22 11:24:42;;;;;;;11.18;4.72;;;27.80;1.00;;;;;;6252673;22;20167;-90
2023/08/22 11:27:08;;;;;;;10.23;5.30;;;27.80;1.00;;;;;;6252631;23;20640;-89
2023/08/22 11:29:49;;;;;;;9.18;4.80;;;27.90;1.00;;;;;;6253127;22;20160;-91
2023/08/22 11:32:22;;;;;;;13.98;6.10;;;28.00;1.00;;;;;;6253062;23;20179;-89
2023/08/22 11:34:53;;;;;;;7.65;4.80;;;27.90;1.00;;;;;;6253515;23;20203;-89
2023/08/22 11:37:19;;;;;;;8.65;5.30;;;27.80;1.00;;;;;;6247906;23;20163;-90
2023/08/22 11:39:52;;;;;;;6.55;4.07;;;27.70;1.00;;;;;;6252148;22;20174;-90
2023/08/22 11:42:20;;;;;;;7.07;4.82;;;27.60;1.00;;;;;;6250882;23;20213;-91
2023/08/22 11:45:05;;;;;;;9.02;5.10;;;27.70;1.00;;;;;;6253735;23;20183;-90
2023/08/22 11:47:40;;;;;;;12.93;4.85;;;27.60;1.00;;;;;;6252378;23;20187;-90
2023/08/22 11:50:07;;;;;;;7.90;4.00;;;27.40;1.00;;;;;;6253550;23;20154;-88
2023/08/22 11:52:34;;;;;;;7.30;2.58;;;27.40;1.00;;;;;;6252996;23;20226;-86
2023/08/22 11:55:07;;;;;;;6.15;2.65;;;27.60;1.00;;;;;;6252296;23;20210;-90
2023/08/22 11:57:39;;;;;;;5.50;3.13;;;27.70;1.00;;;;;;6252834;23;20159;-88
2023/08/22 12:00:08;;;;;;;5.68;1.50;;;27.90;1.00;;;;;;6252174;23;20167;-89
2023/08/22 12:02:35;;;;;;;10.02;1.90;;;27.90;1.00;;;;;;6255100;22;20220;-90
2023/08/22 12:05:01;;;;;;;2.63;1.30;;;28.00;1.00;;;;;;6252845;23;20195;-91
2023/08/22 12:07:26;;;;;;;5.88;2.45;;;28.10;1.00;;;;;;6254544;22;20245;-89
2023/08/22 12:09:59;;;;;;;6.25;2.03;;;28.20;1.00;;;;;;6252682;23;20159;-89
2023/08/22 12:12:25;;;;;;;8.57;1.83;;;28.20;1.00;;;;;;6253363;23;20179;-90
2023/08/22 12:14:51;;;;;;;8.70;4.18;;;28.20;2.50;;;;;;6251683;23;20239;-90
2023/08/22 12:17:17;;;;;;;11.32;4.03;;;28.20;1.00;;;;;;6252579;23;20206;-89
2023/08/22 12:19:43;;;;;;;3.97;2.22;;;28.20;1.00;;;;;;6254285;22;20183;-90
2023/08/22 12:22:09;;;;;;;10.35;4.57;;;28.20;1.00;;;;;;6253747;22;20175;-89
2023/08/22 12:24:36;;;;;;;9.05;4.30;;;28.30;1.00;;;;;;6251817;23;20183;-90
2023/08/22 12:27:02;;;;;;;6.07;3.53;;;28.30;1.00;;;;;;6253696;22;20267;-90
2023/08/22 12:29:27;;;;;;;8.18;3.95;;;28.30;1.00;;;;;;6252423;23;20155;-90
2023/08/22 12:31:53;;;;;;;8.95;4.60;;;28.40;1.00;;;;;;6252176;23;20499;-87
2023/08/22 12:34:19;;;;;;;9.93;4.65;;;28.50;1.00;;;;;;6252361;23;20175;-88
2023/08/22 12:36:44;;;;;;;9.73;4.20;;;28.40;1.00;;;;;;6252441;23;20534;-91
2023/08/22 12:39:12;;;;;;;10.63;5.05;;;28.20;1.00;;;;;;6252916;23;20663;-89
2023/08/22 12:41:38;;;;;;;8.77;4.82;;;28.00;1.00;;;;;;6252974;23;20160;-88
2023/08/22 12:44:04;;;;;;;7.93;4.35;;;27.80;1.00;;;;;;6253373;23;20156;-87
2023/08/22 12:46:30;;;;;;;9.88;4.32;;;27.70;1.00;;;;;;6253813;22;20639;-90